Terminal Aerodrome Forecast
Issued by NWS

Home | Current Version | Previous Version | Graphics & Text | Print | Product List | Glossary Off
Versions: 1 2 3 4 5 6 7 8 9 10 11 12 13 14

000
FTUS42 KMHX 010500
TAFPGV
TAF
KPGV 010521Z 0106/0206 00000KT P6SM SKC
     FM011400 21004KT P6SM OVC250
     FM011800 22008KT P6SM OVC150
     FM020100 17006KT P6SM OVC040
      AMD LTD TO CLD VIS AND WIND=

USA.gov is the U.S. government's official web portal to all federal, state and local government web resources and services.